Time,TemperatureF,DewpointF,PressureIn,WindDirection,WindDirectionDegrees,WindSpeedMPH,WindSpeedGustMPH,Humidity,HourlyPrecipIn,Conditions,Clouds,dailyrainin,SoftwareType,DateUTC
2013-01-09 00:02:00,46.8,41.0,29.23,SSE,157,0.0,0.0,80,0.00,,,0.00,WUHU21623XXSP,2013-01-09 06:02:00,
2013-01-09 00:07:00,46.8,41.0,29.24,West,270,0.0,0.0,80,0.00,,,0.00,WUHU21623XXSP,2013-01-09 06:07:00,
2013-01-09 00:12:00,46.8,41.0,29.24,WSW,247,0.0,0.0,80,0.00,,,0.00,WUHU21623XXSP,2013-01-09 06:12:00,
2013-01-09 00:17:00,46.8,41.0,29.25,West,270,0.0,0.0,80,0.00,,,0.00,WUHU21623XXSP,2013-01-09 06:17:00,
2013-01-09 00:22:00,46.6,40.8,29.25,West,270,0.0,0.0,80,0.00,,,0.00,WUHU21623XXSP,2013-01-09 06:22:00,
2013-01-09 00:27:00,46.6,40.8,29.26,WNW,292,0.0,0.0,80,0.00,,,0.00,WUHU21623XXSP,2013-01-09 06:27:00,
2013-01-09 00:32:00,46.6,40.8,29.25,WNW,292,0.0,0.0,80,0.00,,,0.00,WUHU21623XXSP,2013-01-09 06:32:00,
2013-01-09 00:37:00,46.6,40.8,29.26,WNW,292,0.0,0.0,80,0.00,,,0.00,WUHU21623XXSP,2013-01-09 06:37:00,
2013-01-09 00:42:00,46.6,40.8,29.26,WNW,292,0.0,0.0,80,0.00,,,0.00,WUHU21623XXSP,2013-01-09 06:42:00,
2013-01-09 00:47:00,46.8,41.0,29.26,ESE,112,0.0,0.0,80,0.00,,,0.00,WUHU21623XXSP,2013-01-09 06:47:00,
2013-01-09 00:52:00,46.8,41.0,29.26,ESE,112,0.0,0.0,80,0.00,,,0.00,WUHU21623XXSP,2013-01-09 06:52:00,
2013-01-09 00:57:00,46.8,41.0,29.26,NE,45,0.0,0.0,80,0.00,,,0.00,WUHU21623XXSP,2013-01-09 06:57:00,
2013-01-09 01:02:00,46.6,40.8,29.26,NE,45,0.0,0.0,80,0.00,,,0.00,WUHU21623XXSP,2013-01-09 07:02:00,
2013-01-09 01:07:00,46.8,41.0,29.26,NE,45,0.0,0.0,80,0.00,,,0.00,WUHU21623XXSP,2013-01-09 07:07:00,
2013-01-09 01:12:00,46.6,40.8,29.25,NE,45,0.0,0.0,80,0.00,,,0.00,WUHU21623XXSP,2013-01-09 07:12:00,
2013-01-09 01:17:00,46.8,41.0,29.26,NE,45,0.0,0.0,80,0.00,,,0.00,WUHU21623XXSP,2013-01-09 07:17:00,
2013-01-09 01:22:00,46.8,41.0,29.26,NNW,337,0.0,0.0,80,0.00,,,0.00,WUHU21623XXSP,2013-01-09 07:22:00,
2013-01-09 01:27:00,46.8,41.0,29.26,WNW,292,0.0,0.0,80,0.00,,,0.00,WUHU21623XXSP,2013-01-09 07:27:00,
2013-01-09 01:32:00,46.8,41.0,29.26,WNW,292,0.0,0.0,80,0.00,,,0.00,WUHU21623XXSP,2013-01-09 07:32:00,
2013-01-09 01:37:00,46.6,41.1,29.26,WNW,292,0.0,0.0,81,0.00,,,0.00,WUHU21623XXSP,2013-01-09 07:37:00,
2013-01-09 01:42:00,46.6,41.1,29.27,NW,315,0.0,0.0,81,0.00,,,0.00,WUHU21623XXSP,2013-01-09 07:42:00,
2013-01-09 01:47:00,46.6,41.1,29.26,NW,315,0.0,0.0,81,0.00,,,0.00,WUHU21623XXSP,2013-01-09 07:47:00,
2013-01-09 01:52:00,46.4,40.9,29.27,WNW,292,0.0,0.0,81,0.00,,,0.00,WUHU21623XXSP,2013-01-09 07:52:00,
2013-01-09 01:57:00,46.2,41.1,29.26,NW,315,0.0,0.0,82,0.00,,,0.00,WUHU21623XXSP,2013-01-09 07:57:00,
2013-01-09 02:02:00,46.2,41.1,29.26,NNW,337,0.0,0.0,82,0.00,,,0.00,WUHU21623XXSP,2013-01-09 08:02:00,
2013-01-09 02:07:00,46.2,41.1,29.27,NNW,337,0.0,0.0,82,0.00,,,0.00,WUHU21623XXSP,2013-01-09 08:07:00,
2013-01-09 02:12:00,46.2,41.1,29.27,NNW,337,0.0,0.0,82,0.00,,,0.00,WUHU21623XXSP,2013-01-09 08:12:00,
2013-01-09 02:17:00,46.2,41.1,29.26,NNW,337,0.0,0.0,82,0.00,,,0.00,WUHU21623XXSP,2013-01-09 08:17:00,
2013-01-09 02:22:00,46.4,41.3,29.26,NE,45,0.0,0.0,82,0.00,,,0.00,WUHU21623XXSP,2013-01-09 08:22:00,
2013-01-09 02:27:00,46.6,41.4,29.26,NE,45,0.0,0.0,82,0.00,,,0.00,WUHU21623XXSP,2013-01-09 08:27:00,
2013-01-09 02:32:00,46.6,41.4,29.27,NNE,22,0.0,0.0,82,0.00,,,0.00,WUHU21623XXSP,2013-01-09 08:32:00,
2013-01-09 02:37:00,46.6,41.4,29.27,NNE,22,0.0,0.0,82,0.00,,,0.00,WUHU21623XXSP,2013-01-09 08:37:00,
2013-01-09 02:42:00,46.6,41.1,29.27,North,0,0.0,0.0,81,0.00,,,0.00,WUHU21623XXSP,2013-01-09 08:42:00,
2013-01-09 02:47:00,46.6,41.4,29.27,East,90,0.0,0.0,82,0.00,,,0.00,WUHU21623XXSP,2013-01-09 08:47:00,
2013-01-09 02:52:00,46.6,41.4,29.27,ESE,112,0.0,0.0,82,0.00,,,0.00,WUHU21623XXSP,2013-01-09 08:52:00,
2013-01-09 02:57:00,46.6,41.4,29.27,South,180,0.0,0.0,82,0.00,,,0.00,WUHU21623XXSP,2013-01-09 08:57:00,
2013-01-09 03:02:00,46.6,41.4,29.27,SSE,157,3.1,3.1,82,0.00,,,0.00,WUHU21623XXSP,2013-01-09 09:02:00,
2013-01-09 03:07:00,46.6,41.4,29.26,SSE,157,1.6,3.1,82,0.00,,,0.00,WUHU21623XXSP,2013-01-09 09:07:00,
2013-01-09 03:12:00,46.6,41.4,29.26,SE,135,0.0,1.8,82,0.00,,,0.00,WUHU21623XXSP,2013-01-09 09:12:00,
2013-01-09 03:17:00,46.4,41.6,29.26,East,90,0.0,0.0,83,0.00,,,0.00,WUHU21623XXSP,2013-01-09 09:17:00,
2013-01-09 03:22:00,46.6,41.7,29.26,SE,135,0.0,0.0,83,0.00,,,0.00,WUHU21623XXSP,2013-01-09 09:22:00,
2013-01-09 03:43:00,46.4,41.2,29.26,NNW,338,0.0,0.0,82,0.00,,,0.00,WUHU21623XXSP,2013-01-09 09:43:00,
2013-01-09 04:43:00,46.2,41.3,29.28,NNW,338,0.0,0.0,83,0.00,,,0.00,WUHU21623XXSP,2013-01-09 10:43:00,
2013-01-09 05:43:00,46.2,41.0,29.31,WNW,293,0.0,0.0,82,0.00,,,0.00,WUHU21623XXSP,2013-01-09 11:43:00,
2013-01-09 06:43:00,46.0,41.1,29.32,North,0,0.0,0.0,83,0.00,,,0.00,WUHU21623XXSP,2013-01-09 12:43:00,
2013-01-09 07:43:00,44.4,39.9,29.35,WNW,293,0.0,0.0,84,0.00,,,0.00,WUHU21623XXSP,2013-01-09 13:43:00,
2013-01-09 08:43:00,45.5,40.9,29.38,North,0,0.0,0.0,84,0.00,,,0.00,WUHU21623XXSP,2013-01-09 14:43:00,
2013-01-09 09:43:00,49.3,44.1,29.39,North,0,0.0,0.0,82,0.00,,,0.00,WUHU21623XXSP,2013-01-09 15:43:00,
2013-01-09 10:43:00,53.4,45.8,29.38,NE,45,0.0,0.0,75,0.00,,,0.00,WUHU21623XXSP,2013-01-09 16:43:00,
2013-01-09 11:43:00,55.4,45.5,29.37,NE,45,0.0,0.0,69,0.00,,,0.00,WUHU21623XXSP,2013-01-09 17:43:00,
2013-01-09 12:43:00,56.5,45.0,29.35,NE,45,3.4,3.4,65,0.00,,,0.00,WUHU21623XXSP,2013-01-09 18:43:00,
2013-01-09 13:43:00,56.5,45.4,29.34,NNE,23,0.7,0.7,66,0.00,,,0.00,WUHU21623XXSP,2013-01-09 19:43:00,
2013-01-09 14:43:00,56.7,44.4,29.34,North,0,1.8,1.8,63,0.00,,,0.00,WUHU21623XXSP,2013-01-09 20:43:00,
2013-01-09 15:43:00,55.9,43.2,29.34,NNE,23,0.0,0.0,62,0.00,,,0.00,WUHU21623XXSP,2013-01-09 21:43:00,
2013-01-09 16:43:00,54.1,41.9,29.34,NNE,23,0.0,0.0,63,0.00,,,0.00,WUHU21623XXSP,2013-01-09 22:43:00,
2013-01-09 17:43:00,52.3,40.6,29.35,NNE,23,0.0,0.0,64,0.00,,,0.00,WUHU21623XXSP,2013-01-09 23:43:00,
2013-01-09 18:43:00,52.5,39.1,29.35,ENE,68,0.0,0.0,60,0.00,,,0.00,WUHU21623XXSP,2013-01-10 00:43:00,
2013-01-09 19:43:00,52.9,39.9,29.36,ENE,68,0.0,0.0,61,0.00,,,0.00,WUHU21623XXSP,2013-01-10 01:43:00,
2013-01-09 20:43:00,52.5,40.0,29.36,ENE,68,0.0,0.0,62,0.00,,,0.00,WUHU21623XXSP,2013-01-10 02:43:00,
2013-01-09 21:43:00,52.5,40.4,29.35,ESE,113,0.0,0.0,63,0.00,,,0.00,WUHU21623XXSP,2013-01-10 03:43:00,
2013-01-09 22:43:00,51.6,39.5,29.34,NE,45,2.5,2.5,63,0.00,,,0.00,WUHU21623XXSP,2013-01-10 04:43:00,
2013-01-09 23:43:00,51.6,38.3,29.32,ENE,68,3.8,3.8,60,0.00,,,0.00,WUHU21623XXSP,2013-01-10 05:43:00,